Terminal Aerodrome Forecast
Issued by NWS Duluth, MN

Home | Current Version | Previous Version | Text Only | Print | Product List | Glossary On
Versions: 1 2 3 4 5 6 7 8 9 10 11 12 13 14 15 16 17 18 19 20 21 22
000
FTUS43 KDLH 191700
TAFINL
TAF
KINL 191729Z 1918/2018 05006KT P6SM SCT025 OVC035
      TEMPO 1918/1919 OVC030
     FM192000 01004KT P6SM SCT025 BKN035
     FM200200 VRB02KT P6SM SCT050 BKN100
     FM200700 00000KT 5SM BR SCT007 BKN015
     FM201000 00000KT 2SM BR SCT004 OVC007
     FM201400 11003KT P6SM BKN015
     FM201600 12005KT P6SM FEW015=

USA.gov is the U.S. government's official web portal to all federal, state and local government web resources and services.